Weather at Abaco I Walker C Airport

Public forecast

Using degrees Celsius for public forecast. Weather courtesy of forecast.io.

Closest aviation weather report (METAR) to Abaco I Walker C Airport

Closest report is Grand Bahama International Airport, 45.4 nm (84.0 km) SSW. Retrieved 2020/10/01 19:00 UTC (10 minutes ago):

MYGF 011900Z 23004KT 9999 FEW015CB SCT018TCU BKN220 31/26 A2991

Closest aviation forecast (TAF) to Abaco I Walker C Airport

Closest forecast is Grand Bahama International Airport, 45.4 nm (84.0 km) SSW. Retrieved 2020/10/01 18:37 UTC (33 minutes ago):

TAF MYGF 011600Z 0118/0218 VRB02KT 9000 TSRA SCT018CB SCT040 BKN100 FM 021200Z 05007KT 9999 FEW018CB SCT020 BKN250